Pagina principale
METAR-TAF:

METAR-TAF

Aeroporti :

Zara, Croazia

Aeroporto di Zara-Zemonico

latitudine: 44-06N, longitudine: 015-21E, altezza: 82 m

Osservazione

Il bollettino è stato emesso 36 minuti fa, alle 20:00 UTC
Vento 5 kt da ovest/nord-ovest
Temperature 21°C
Umidità 73%
Pressione 1004 hPa
Visibilità 10 km o più
nessuna nube inferiore a 1500 m e nessun cumulonembo

METAR: LDZD 252000Z 29005KT CAVOK 21/16 Q1004 NOSIG

Ora: 22:36 (20:36 UTC)

Previsione

Il bollettino è stato emesso 3 ore e 11 minuti fa, alle 17:25 UTC
Previsione valida dal 25 alle 18 UTC al 26 alle 18 UTC
Vento 8 kt da ovest/nord-ovest
Visibilità 10 km o più
nessuna nube inferiore a 1500 m e nessun cumulonembo
Evoluzione graduale
dal 25 alle 18 UTC al 25 alle 20 UTC
Vento 2 kt da direzioni variabili
Evoluzione graduale
dal 26 alle 09 UTC al 26 alle 11 UTC
Vento 8 kt da ovest/nord-ovest

TAF: LDZD 251725Z 2518/2618 30008KT CAVOK TX28/2613Z TN18/2603Z BECMG 2518/2520 VRB02KT BECMG 2609/2611 30008KT

Osservazioni e previsioni meteorologiche di più di 4000 aeroporti (messaggi METAR e TAF).

Le stazioni disponibili sono rappresentate dai dischi gialli e rossi sulla carta.

Puntare il mouse per vedere il nome della stazione.

Clicca sopra per visualizzare le osservazioni e previsioni meteorologiche.

Per cambiare la mappa : fare clic sui pulsanti verdi con una croce nera per ingrandire, il pulsante verde con un trattino per diminuire, o sulla freccia verde per le mappe adiacenti.


METAR-TAF: